Time;durP1;ratioP1;P1;durP2;ratioP2;P2;SDS_P1;SDS_P2;PMS_P1;PMS_P2;Temp;Humidity;BMP_temperature;BMP_pressure;BME280_temperature;BME280_humidity;BME280_pressure;Samples;Min_cycle;Max_cycle;Signal;HPM_P1;HPM_P2
2021/10/24 00:00:53;;;;;;;8.00;3.80;;;;;;;;;;5037319;28;20043;-85
2021/10/24 00:03:19;;;;;;;7.55;3.60;;;;;;;;;;5037120;28;20148;-85
2021/10/24 00:05:45;;;;;;;8.35;3.30;;;;;;;;;;5019861;28;20028;-85
2021/10/24 00:08:11;;;;;;;6.13;3.70;;;;;;;;;;5037186;28;20014;-89
2021/10/24 00:10:38;;;;;;;8.88;3.45;;;;;;;;;;5037114;28;20039;-85
2021/10/24 00:13:04;;;;;;;8.48;4.00;;;;;;;;;;5019955;28;20025;-85
2021/10/24 00:15:30;;;;;;;8.25;3.67;;;;;;;;;;5019826;28;20420;-85
2021/10/24 00:17:56;;;;;;;6.97;3.97;;;;;;;;;;5019892;28;20029;-86
2021/10/24 00:20:22;;;;;;;6.95;3.65;;;;;;;;;;5037174;28;20018;-85
2021/10/24 00:22:48;;;;;;;10.95;4.18;;;;;;;;;;5037453;28;20076;-85
2021/10/24 00:25:14;;;;;;;7.20;4.05;;;;;;;;;;5037061;28;20426;-86
2021/10/24 00:27:40;;;;;;;8.75;4.40;;;;;;;;;;5037004;28;20297;-85
2021/10/24 00:30:07;;;;;;;8.35;4.05;;;;;;;;;;5037094;28;20130;-85
2021/10/24 00:32:33;;;;;;;8.68;4.10;;;;;;;;;;5037239;28;20036;-85
2021/10/24 00:34:59;;;;;;;13.13;5.10;;;;;;;;;;5021185;28;20121;-86
2021/10/24 00:37:25;;;;;;;7.88;4.07;;;;;;;;;;5040885;28;20032;-86
2021/10/24 00:39:51;;;;;;;9.18;3.92;;;;;;;;;;5040957;28;20033;-86
2021/10/24 00:42:37;;;;;;;6.88;3.72;;;;;;;;;;5023063;28;20026;-85
2021/10/24 00:45:04;;;;;;;7.93;4.38;;;;;;;;;;5023104;28;20021;-85
2021/10/24 00:47:30;;;;;;;7.68;4.15;;;;;;;;;;5040569;28;20029;-84
2021/10/24 00:49:56;;;;;;;8.52;4.20;;;;;;;;;;5006644;28;20120;-85
2021/10/24 00:52:22;;;;;;;8.40;4.50;;;;;;;;;;5023178;28;20037;-85
2021/10/24 00:54:49;;;;;;;6.97;4.38;;;;;;;;;;5040536;28;20028;-85
2021/10/24 00:57:15;;;;;;;10.02;3.53;;;;;;;;;;5022708;28;20060;-85
2021/10/24 00:59:41;;;;;;;10.43;3.90;;;;;;;;;;5040173;28;20034;-85
2021/10/24 01:02:07;;;;;;;7.13;4.38;;;;;;;;;;5022971;28;20033;-85
2021/10/24 01:04:33;;;;;;;6.82;3.63;;;;;;;;;;5022862;28;20053;-85
2021/10/24 01:07:03;;;;;;;7.25;3.47;;;;;;;;;;5022759;28;20021;-85
2021/10/24 01:09:30;;;;;;;10.77;4.13;;;;;;;;;;5022770;28;20037;-85
2021/10/24 01:15:19;;;;;;;7.60;3.20;;;;;;;;;;5040191;28;20431;-85
2021/10/24 01:17:45;;;;;;;7.97;4.97;;;;;;;;;;5022747;28;20029;-85
2021/10/24 01:20:16;;;;;;;8.07;3.33;;;;;;;;;;5022166;28;20409;-85
2021/10/24 01:22:42;;;;;;;6.80;3.70;;;;;;;;;;5022684;28;20308;-85
2021/10/24 01:25:08;;;;;;;8.70;4.07;;;;;;;;;;5040320;28;20045;-86
2021/10/24 01:27:57;;;;;;;7.20;3.80;;;;;;;;;;5022274;28;20030;-86
2021/10/24 01:30:24;;;;;;;9.32;5.45;;;;;;;;;;5022109;28;20072;-86
2021/10/24 01:32:51;;;;;;;6.78;5.18;;;;;;;;;;5040189;28;20032;-86
2021/10/24 01:35:17;;;;;;;7.90;3.30;;;;;;;;;;5022503;28;20032;-86
2021/10/24 01:37:43;;;;;;;7.18;2.95;;;;;;;;;;5039811;28;20025;-86
2021/10/24 01:40:11;;;;;;;7.38;3.30;;;;;;;;;;5022348;28;20072;-86
2021/10/24 01:45:40;;;;;;;6.65;3.10;;;;;;;;;;5039633;28;20514;-86
2021/10/24 01:48:07;;;;;;;8.02;3.30;;;;;;;;;;5039984;28;20067;-86
2021/10/24 01:50:33;;;;;;;8.63;3.30;;;;;;;;;;5039753;28;20045;-84
2021/10/24 01:52:59;;;;;;;5.28;2.60;;;;;;;;;;5022070;28;20033;-86
2021/10/24 01:55:25;;;;;;;5.25;2.80;;;;;;;;;;5021931;28;20446;-86
2021/10/24 01:58:10;;;;;;;4.65;2.80;;;;;;;;;;5039294;28;20033;-85
2021/10/24 02:00:36;;;;;;;7.10;3.00;;;;;;;;;;5021978;28;20036;-85
2021/10/24 02:03:02;;;;;;;8.35;3.35;;;;;;;;;;5021896;28;20029;-86
2021/10/24 02:05:29;;;;;;;11.40;3.80;;;;;;;;;;5021832;28;20323;-86
2021/10/24 02:07:55;;;;;;;4.93;3.03;;;;;;;;;;5039541;28;20021;-86
2021/10/24 02:10:22;;;;;;;7.40;3.30;;;;;;;;;;5039542;28;20029;-86
2021/10/24 02:12:48;;;;;;;7.95;3.70;;;;;;;;;;5039290;28;20049;-86
2021/10/24 02:15:14;;;;;;;5.30;3.25;;;;;;;;;;5038998;28;20045;-86
2021/10/24 02:17:40;;;;;;;7.13;4.13;;;;;;;;;;5039300;28;20030;-86
2021/10/24 02:20:08;;;;;;;9.60;4.70;;;;;;;;;;5039280;28;20056;-86
2021/10/24 02:22:34;;;;;;;8.30;4.53;;;;;;;;;;5039241;28;20071;-85
2021/10/24 02:25:00;;;;;;;10.57;6.22;;;;;;;;;;5038776;28;20024;-86
2021/10/24 02:27:26;;;;;;;8.05;3.45;;;;;;;;;;5038691;28;20053;-86
2021/10/24 02:29:53;;;;;;;5.80;3.53;;;;;;;;;;5038913;28;20053;-85
2021/10/24 02:32:19;;;;;;;8.30;3.38;;;;;;;;;;5039124;28;20104;-86
2021/10/24 02:34:45;;;;;;;6.82;3.30;;;;;;;;;;5021363;28;20041;-87
2021/10/24 02:37:11;;;;;;;9.50;3.83;;;;;;;;;;5038667;28;20106;-87
2021/10/24 02:39:37;;;;;;;6.97;3.50;;;;;;;;;;5038510;28;20030;-86
2021/10/24 02:45:07;;;;;;;6.22;3.50;;;;;;;;;;5038813;28;20320;-87
2021/10/24 02:47:34;;;;;;;8.13;3.40;;;;;;;;;;5021121;28;20026;-86
2021/10/24 02:50:00;;;;;;;10.93;3.75;;;;;;;;;;5020960;28;20025;-85
2021/10/24 02:52:26;;;;;;;8.60;3.70;;;;;;;;;;5021008;28;20048;-85
2021/10/24 02:54:53;;;;;;;6.97;3.20;;;;;;;;;;5038358;28;20061;-85
2021/10/24 02:57:38;;;;;;;7.45;3.58;;;;;;;;;;5037481;28;20328;-85
2021/10/24 03:00:06;;;;;;;7.85;3.38;;;;;;;;;;5037884;28;20029;-86
2021/10/24 03:02:32;;;;;;;8.23;3.10;;;;;;;;;;5020685;28;20071;-85
2021/10/24 03:04:58;;;;;;;7.00;3.40;;;;;;;;;;5038051;28;20508;-84
2021/10/24 03:07:24;;;;;;;10.23;3.67;;;;;;;;;;5038061;28;20053;-86
2021/10/24 03:09:50;;;;;;;9.13;3.78;;;;;;;;;;5020289;28;20043;-85
2021/10/24 03:12:16;;;;;;;7.75;3.50;;;;;;;;;;5038325;28;20037;-87
2021/10/24 03:14:42;;;;;;;11.93;4.80;;;;;;;;;;5038035;28;20061;-86
2021/10/24 03:17:08;;;;;;;24.83;10.68;;;;;;;;;;5038096;28;20040;-85
2021/10/24 03:19:34;;;;;;;17.55;7.57;;;;;;;;;;5038167;28;20052;-86
2021/10/24 03:22:03;;;;;;;14.27;7.13;;;;;;;;;;5038316;28;20024;-86
2021/10/24 03:24:29;;;;;;;12.32;5.10;;;;;;;;;;5038214;28;20096;-85
2021/10/24 03:26:58;;;;;;;8.90;4.32;;;;;;;;;;5037653;28;20028;-85
2021/10/24 03:29:24;;;;;;;5.18;3.25;;;;;;;;;;5037629;28;20463;-86
2021/10/24 03:31:50;;;;;;;9.02;4.00;;;;;;;;;;5037974;28;20021;-86
2021/10/24 03:34:17;;;;;;;7.53;3.85;;;;;;;;;;5037748;28;20090;-86
2021/10/24 03:36:43;;;;;;;8.38;3.60;;;;;;;;;;5037662;28;20103;-86
2021/10/24 03:39:09;;;;;;;9.32;3.80;;;;;;;;;;5037734;28;20033;-86
2021/10/24 03:41:35;;;;;;;9.32;4.57;;;;;;;;;;5020346;28;20061;-86
2021/10/24 03:47:05;;;;;;;8.32;4.35;;;;;;;;;;5037721;28;20032;-85
2021/10/24 03:49:31;;;;;;;6.15;3.67;;;;;;;;;;5037722;28;20085;-86
2021/10/24 03:51:57;;;;;;;15.40;5.75;;;;;;;;;;5020178;28;20018;-87
2021/10/24 03:54:23;;;;;;;14.88;7.85;;;;;;;;;;5037513;28;20097;-86
2021/10/24 03:56:49;;;;;;;9.07;6.22;;;;;;;;;;5020051;28;20053;-86
2021/10/24 04:02:19;;;;;;;7.57;4.90;;;;;;;;;;5037564;28;20049;-86
2021/10/24 04:04:45;;;;;;;7.53;4.15;;;;;;;;;;5037483;28;20112;-85
2021/10/24 04:07:11;;;;;;;11.50;4.10;;;;;;;;;;5037424;28;20072;-87
2021/10/24 04:09:38;;;;;;;8.07;3.88;;;;;;;;;;5040086;28;20021;-86
2021/10/24 04:12:04;;;;;;;7.55;4.45;;;;;;;;;;5023664;28;20045;-87
2021/10/24 04:14:31;;;;;;;7.90;4.65;;;;;;;;;;5041357;28;20075;-86
2021/10/24 04:16:57;;;;;;;7.63;3.83;;;;;;;;;;5023478;28;20383;-86
2021/10/24 04:19:23;;;;;;;9.63;4.05;;;;;;;;;;5041509;28;20029;-87
2021/10/24 04:21:49;;;;;;;8.55;4.07;;;;;;;;;;5041491;28;20038;-87
2021/10/24 04:24:15;;;;;;;12.80;5.30;;;;;;;;;;5041152;28;20396;-86
2021/10/24 04:26:41;;;;;;;8.38;5.50;;;;;;;;;;5041269;28;20319;-86
2021/10/24 04:29:07;;;;;;;12.50;5.38;;;;;;;;;;5040754;28;20140;-86
2021/10/24 04:31:33;;;;;;;9.40;4.20;;;;;;;;;;5021466;28;20070;-85
2021/10/24 04:33:59;;;;;;;10.00;4.60;;;;;;;;;;5041204;28;20105;-85
2021/10/24 04:36:26;;;;;;;7.00;4.57;;;;;;;;;;5040809;28;20029;-84
2021/10/24 04:38:52;;;;;;;12.98;5.85;;;;;;;;;;5040957;28;20104;-86
2021/10/24 04:41:18;;;;;;;10.82;6.07;;;;;;;;;;5040435;28;20040;-84
2021/10/24 04:43:44;;;;;;;12.52;5.32;;;;;;;;;;5040249;28;20028;-85
2021/10/24 04:46:10;;;;;;;12.95;6.28;;;;;;;;;;5040560;28;20064;-86
2021/10/24 04:48:36;;;;;;;13.73;7.90;;;;;;;;;;5023352;28;20088;-85
2021/10/24 04:51:02;;;;;;;16.65;8.70;;;;;;;;;;5009866;28;20026;-86
2021/10/24 04:53:29;;;;;;;13.50;8.05;;;;;;;;;;5020852;28;20077;-86
2021/10/24 04:55:56;;;;;;;13.40;7.35;;;;;;;;;;5020930;28;20435;-86
2021/10/24 04:58:22;;;;;;;11.90;6.60;;;;;;;;;;5020706;28;20054;-85
2021/10/24 05:00:48;;;;;;;15.52;8.57;;;;;;;;;;5038348;28;20033;-85
2021/10/24 05:03:15;;;;;;;23.63;11.00;;;;;;;;;;5022926;28;20028;-85
2021/10/24 05:05:41;;;;;;;27.50;13.20;;;;;;;;;;5040375;28;20021;-85
2021/10/24 05:08:07;;;;;;;20.63;8.60;;;;;;;;;;5040265;28;20025;-85
2021/10/24 05:10:33;;;;;;;17.73;7.68;;;;;;;;;;5022599;28;20033;-84
2021/10/24 05:12:59;;;;;;;12.73;6.97;;;;;;;;;;5040242;28;20068;-85
2021/10/24 05:15:25;;;;;;;13.70;7.68;;;;;;;;;;5040111;28;20021;-85
2021/10/24 05:17:51;;;;;;;17.20;8.38;;;;;;;;;;5022412;28;20485;-85
2021/10/24 05:20:17;;;;;;;16.60;9.75;;;;;;;;;;5039201;28;20352;-86
2021/10/24 05:22:43;;;;;;;15.00;9.30;;;;;;;;;;5040298;28;20097;-86
2021/10/24 05:25:10;;;;;;;14.10;9.60;;;;;;;;;;5022649;28;20029;-85
2021/10/24 05:27:36;;;;;;;15.95;8.70;;;;;;;;;;5022307;28;20032;-85
2021/10/24 05:30:02;;;;;;;23.98;12.48;;;;;;;;;;5039826;28;20081;-86
2021/10/24 05:32:29;;;;;;;19.42;10.45;;;;;;;;;;5040350;28;20045;-85
2021/10/24 05:34:55;;;;;;;13.23;7.85;;;;;;;;;;5040069;28;20029;-86
2021/10/24 05:37:21;;;;;;;18.92;8.57;;;;;;;;;;5022206;28;20036;-86
2021/10/24 05:39:47;;;;;;;17.08;6.50;;;;;;;;;;5022257;28;20038;-86
2021/10/24 05:42:14;;;;;;;12.40;4.80;;;;;;;;;;5022442;28;20060;-86
2021/10/24 05:44:40;;;;;;;10.00;4.93;;;;;;;;;;5039669;28;20041;-86
2021/10/24 05:47:06;;;;;;;9.90;4.38;;;;;;;;;;5039593;28;20028;-87
2021/10/24 05:49:32;;;;;;;10.68;4.57;;;;;;;;;;5038985;28;20021;-87
2021/10/24 05:51:58;;;;;;;13.27;4.85;;;;;;;;;;5039767;28;20060;-86
2021/10/24 05:54:24;;;;;;;10.15;4.50;;;;;;;;;;5039893;28;20049;-86
2021/10/24 05:56:50;;;;;;;12.70;5.30;;;;;;;;;;5039665;28;20053;-86
2021/10/24 06:02:20;;;;;;;15.43;5.50;;;;;;;;;;5039776;28;20044;-86
2021/10/24 06:04:46;;;;;;;12.88;5.53;;;;;;;;;;5039449;28;20052;-86
2021/10/24 06:07:12;;;;;;;15.05;6.80;;;;;;;;;;5038986;28;20022;-86
2021/10/24 06:10:01;;;;;;;19.90;9.10;;;;;;;;;;5039477;28;20068;-86
2021/10/24 06:15:13;;;;;;;18.45;7.55;;;;;;;;;;5039055;28;20029;-85
2021/10/24 06:17:40;;;;;;;18.17;7.90;;;;;;;;;;5021236;28;20070;-86
2021/10/24 06:20:07;;;;;;;16.30;6.75;;;;;;;;;;5038614;28;20030;-85
2021/10/24 06:22:33;;;;;;;14.65;5.95;;;;;;;;;;5021341;28;20332;-87
2021/10/24 06:24:59;;;;;;;19.83;7.80;;;;;;;;;;5039283;28;20048;-87
2021/10/24 06:27:25;;;;;;;16.20;6.90;;;;;;;;;;5038760;28;20049;-87
2021/10/24 06:33:08;;;;;;;18.73;8.82;;;;;;;;;;5035268;28;20828;-86
2021/10/24 06:35:35;;;;;;;17.20;8.57;;;;;;;;;;5020838;28;20045;-87
2021/10/24 06:38:01;;;;;;;20.55;8.35;;;;;;;;;;5038735;28;20032;-87
2021/10/24 06:40:27;;;;;;;16.48;8.82;;;;;;;;;;5038556;28;20025;-87
2021/10/24 06:45:56;;;;;;;20.15;9.60;;;;;;;;;;5038502;28;20032;-86
2021/10/24 06:48:22;;;;;;;27.70;11.95;;;;;;;;;;5038692;28;20018;-87
2021/10/24 06:50:48;;;;;;;19.15;9.75;;;;;;;;;;5038546;28;20036;-87
2021/10/24 06:53:15;;;;;;;20.30;9.40;;;;;;;;;;5038457;28;20025;-86
2021/10/24 06:55:41;;;;;;;20.00;8.68;;;;;;;;;;5038735;28;20025;-86
2021/10/24 06:58:09;;;;;;;18.00;8.20;;;;;;;;;;5038347;28;20025;-86
2021/10/24 07:00:35;;;;;;;17.25;8.32;;;;;;;;;;5020607;28;20042;-85
2021/10/24 07:03:01;;;;;;;18.30;9.65;;;;;;;;;;5020745;28;20408;-86
2021/10/24 07:05:27;;;;;;;17.45;8.38;;;;;;;;;;5020698;28;20354;-86
2021/10/24 07:07:53;;;;;;;14.93;7.60;;;;;;;;;;5020772;28;20032;-85
2021/10/24 07:10:19;;;;;;;13.93;6.15;;;;;;;;;;5038338;28;20100;-85
2021/10/24 07:12:51;;;;;;;13.20;5.75;;;;;;;;;;5038079;28;20100;-86
2021/10/24 07:15:17;;;;;;;11.47;5.50;;;;;;;;;;5038186;28;20032;-86
2021/10/24 07:17:43;;;;;;;16.08;6.43;;;;;;;;;;5037178;28;20124;-85
2021/10/24 07:20:09;;;;;;;16.80;6.75;;;;;;;;;;5037704;28;20025;-86
2021/10/24 07:22:36;;;;;;;21.95;10.65;;;;;;;;;;5038078;28;20407;-86
2021/10/24 07:25:03;;;;;;;11.38;5.47;;;;;;;;;;5037892;28;20423;-86
2021/10/24 07:27:29;;;;;;;13.15;5.15;;;;;;;;;;5037572;28;20029;-84
2021/10/24 07:36:02;;;;;;;10.05;4.75;;;;;;;;;;5036417;28;20052;-86
2021/10/24 07:38:28;;;;;;;9.57;5.07;;;;;;;;;;5037630;28;20033;-85
2021/10/24 07:40:54;;;;;;;14.35;5.15;;;;;;;;;;5037268;28;20027;-84
2021/10/24 07:43:21;;;;;;;11.35;4.93;;;;;;;;;;5037385;28;20048;-85
2021/10/24 07:45:48;;;;;;;14.43;6.97;;;;;;;;;;5037819;28;20146;-86
2021/10/24 07:48:14;;;;;;;15.75;7.40;;;;;;;;;;5037606;28;20083;-86
2021/10/24 07:50:40;;;;;;;12.25;6.28;;;;;;;;;;5037815;28;20029;-85
2021/10/24 07:53:06;;;;;;;11.30;6.10;;;;;;;;;;5037607;28;20029;-84
2021/10/24 07:55:32;;;;;;;13.65;6.15;;;;;;;;;;5019995;28;20025;-84
2021/10/24 07:57:58;;;;;;;11.45;6.07;;;;;;;;;;5037600;28;20359;-85
2021/10/24 08:03:28;;;;;;;14.00;7.22;;;;;;;;;;5037601;28;20028;-85
2021/10/24 08:05:54;;;;;;;15.00;6.78;;;;;;;;;;5019944;28;20296;-85
2021/10/24 08:08:20;;;;;;;15.27;7.82;;;;;;;;;;5037349;28;20028;-85
2021/10/24 08:10:46;;;;;;;13.55;6.40;;;;;;;;;;5019477;28;20327;-85
2021/10/24 08:13:12;;;;;;;13.38;6.55;;;;;;;;;;5019509;28;20049;-85
2021/10/24 08:15:38;;;;;;;10.32;6.05;;;;;;;;;;5037242;28;20075;-86
2021/10/24 08:18:04;;;;;;;14.45;6.40;;;;;;;;;;5019801;28;20057;-85
2021/10/24 08:20:31;;;;;;;14.20;7.60;;;;;;;;;;5019552;28;20075;-86
2021/10/24 08:22:57;;;;;;;14.57;6.38;;;;;;;;;;5037188;28;20409;-85
2021/10/24 08:25:24;;;;;;;11.98;5.82;;;;;;;;;;5019186;28;20420;-84
2021/10/24 08:27:50;;;;;;;11.80;5.53;;;;;;;;;;5019525;28;20083;-84
2021/10/24 08:30:35;;;;;;;12.57;5.65;;;;;;;;;;5037262;28;20111;-85
2021/10/24 08:33:01;;;;;;;11.90;5.60;;;;;;;;;;5000050;28;20041;-84
2021/10/24 08:35:27;;;;;;;12.15;6.20;;;;;;;;;;5017304;28;20112;-85
2021/10/24 08:37:53;;;;;;;8.38;5.25;;;;;;;;;;5017601;28;20026;-85
2021/10/24 08:40:20;;;;;;;10.30;5.78;;;;;;;;;;5017025;28;20416;-85
2021/10/24 08:42:51;;;;;;;13.23;5.90;;;;;;;;;;5017083;28;20026;-85
2021/10/24 08:45:18;;;;;;;10.93;5.27;;;;;;;;;;4999512;28;20026;-84
2021/10/24 08:47:44;;;;;;;9.00;5.70;;;;;;;;;;5029233;28;20246;-84
2021/10/24 08:50:11;;;;;;;15.10;6.60;;;;;;;;;;5036636;28;20029;-84
2021/10/24 08:52:39;;;;;;;12.75;6.50;;;;;;;;;;5019665;28;20029;-84
2021/10/24 08:55:06;;;;;;;11.38;6.07;;;;;;;;;;5019494;28;20029;-83
2021/10/24 08:57:32;;;;;;;17.15;7.10;;;;;;;;;;5040304;28;20105;-83
2021/10/24 08:59:58;;;;;;;19.65;9.07;;;;;;;;;;5040154;28;20034;-83
2021/10/24 09:02:43;;;;;;;16.33;8.07;;;;;;;;;;5040221;28;20120;-84
2021/10/24 09:05:09;;;;;;;13.88;7.10;;;;;;;;;;5020735;28;20049;-83
2021/10/24 09:07:37;;;;;;;15.88;7.28;;;;;;;;;;5020633;28;20033;-83
2021/10/24 09:10:03;;;;;;;16.33;6.88;;;;;;;;;;5020639;28;20022;-84
2021/10/24 09:12:29;;;;;;;22.02;9.18;;;;;;;;;;5011890;28;20030;-84
2021/10/24 09:14:56;;;;;;;23.27;8.55;;;;;;;;;;5040345;28;20052;-84
2021/10/24 09:17:24;;;;;;;13.60;6.13;;;;;;;;;;5022019;28;20033;-84
2021/10/24 09:19:55;;;;;;;12.60;6.07;;;;;;;;;;5039872;28;20057;-83
2021/10/24 09:22:21;;;;;;;11.18;6.15;;;;;;;;;;5040029;28;20041;-83
2021/10/24 09:25:02;;;;;;;13.57;7.20;;;;;;;;;;5039976;28;20021;-83
2021/10/24 09:27:28;;;;;;;15.50;6.45;;;;;;;;;;5039682;28;20052;-83
2021/10/24 09:29:54;;;;;;;13.02;6.68;;;;;;;;;;5039427;28;20026;-83
2021/10/24 09:32:20;;;;;;;11.82;5.97;;;;;;;;;;5039555;28;20052;-83
2021/10/24 09:35:02;;;;;;;12.10;5.60;;;;;;;;;;5039515;28;20017;-83
2021/10/24 09:37:29;;;;;;;15.20;5.72;;;;;;;;;;5022015;28;20069;-83
2021/10/24 09:39:55;;;;;;;10.55;4.75;;;;;;;;;;5039644;28;20080;-83
2021/10/24 09:42:22;;;;;;;14.93;5.90;;;;;;;;;;5039573;28;20096;-83
2021/10/24 09:45:00;;;;;;;14.35;6.72;;;;;;;;;;5021627;28;20030;-83
2021/10/24 09:47:26;;;;;;;12.35;6.15;;;;;;;;;;5039263;28;20038;-83
2021/10/24 09:49:53;;;;;;;12.40;4.93;;;;;;;;;;5039611;28;20339;-84
2021/10/24 09:52:29;;;;;;;9.35;5.28;;;;;;;;;;5039014;28;20022;-82
2021/10/24 09:54:55;;;;;;;9.63;5.40;;;;;;;;;;5027057;28;20082;-83
2021/10/24 09:57:22;;;;;;;13.40;6.28;;;;;;;;;;5019516;28;20384;-83
2021/10/24 10:00:04;;;;;;;9.65;4.88;;;;;;;;;;5020807;28;20088;-85
2021/10/24 10:02:30;;;;;;;10.05;4.93;;;;;;;;;;5027610;28;20045;-75
2021/10/24 10:04:58;;;;;;;10.20;5.03;;;;;;;;;;5037756;28;20033;-75
2021/10/24 10:07:24;;;;;;;10.70;5.32;;;;;;;;;;5037704;28;20025;-75
2021/10/24 10:09:50;;;;;;;12.65;5.38;;;;;;;;;;5021945;28;20029;-75
2021/10/24 10:12:19;;;;;;;8.80;4.65;;;;;;;;;;5038627;28;20319;-76
2021/10/24 10:14:46;;;;;;;12.98;5.88;;;;;;;;;;5037999;28;20029;-75
2021/10/24 10:17:20;;;;;;;10.20;4.75;;;;;;;;;;5038519;28;20036;-75
2021/10/24 10:19:47;;;;;;;8.60;4.00;;;;;;;;;;5037756;28;20289;-75
2021/10/24 10:22:22;;;;;;;8.52;4.32;;;;;;;;;;5038644;28;20075;-75
2021/10/24 10:24:55;;;;;;;13.63;4.40;;;;;;;;;;5038742;28;20029;-75
2021/10/24 10:27:28;;;;;;;8.57;4.15;;;;;;;;;;5020612;28;20022;-75
2021/10/24 10:30:01;;;;;;;8.55;4.22;;;;;;;;;;5038217;28;20033;-75
2021/10/24 10:32:35;;;;;;;10.02;3.63;;;;;;;;;;5038270;28;20025;-75
2021/10/24 10:35:01;;;;;;;8.55;4.05;;;;;;;;;;5020447;28;20046;-75
2021/10/24 10:37:55;;;;;;;8.88;4.85;;;;;;;;;;5038130;28;20030;-75
2021/10/24 10:40:41;;;;;;;12.57;6.10;;;;;;;;;;5037972;28;20022;-76
2021/10/24 10:43:19;;;;;;;8.15;4.28;;;;;;;;;;5037875;28;20099;-75
2021/10/24 10:45:46;;;;;;;11.50;4.78;;;;;;;;;;5037997;28;20294;-75
2021/10/24 10:48:18;;;;;;;11.57;5.10;;;;;;;;;;5038067;28;20050;-75
2021/10/24 10:50:46;;;;;;;;;;;;;;;;;;5038421;28;20028;-75
2021/10/24 10:53:31;;;;;;;13.23;5.82;;;;;;;;;;5020767;28;20374;-75
2021/10/24 10:56:00;;;;;;;10.77;4.30;;;;;;;;;;5038168;28;20109;-75
2021/10/24 10:58:37;;;;;;;9.63;4.32;;;;;;;;;;5020243;28;20034;-75
2021/10/24 11:01:05;;;;;;;7.97;3.95;;;;;;;;;;5020170;28;20030;-75
2021/10/24 11:03:49;;;;;;;9.18;4.20;;;;;;;;;;5037799;28;20032;-75
2021/10/24 11:06:25;;;;;;;7.30;4.07;;;;;;;;;;5037597;28;20045;-75
2021/10/24 11:08:53;;;;;;;9.75;4.13;;;;;;;;;;5037572;28;20419;-75
2021/10/24 11:11:41;;;;;;;6.65;3.70;;;;;;;;;;5037406;28;20416;-75
2021/10/24 11:14:16;;;;;;;8.82;3.92;;;;;;;;;;5037542;28;20021;-75
2021/10/24 11:16:47;;;;;;;9.80;3.88;;;;;;;;;;5037382;28;20025;-75
2021/10/24 11:19:39;;;;;;;14.20;7.35;;;;;;;;;;5037017;28;20083;-75
2021/10/24 11:22:05;;;;;;;12.52;6.05;;;;;;;;;;5029043;28;20037;-76
2021/10/24 11:24:41;;;;;;;32.80;15.00;;;;;;;;;;5019759;28;20021;-75
2021/10/24 11:27:08;;;;;;;7.93;3.30;;;;;;;;;;5037062;28;20037;-75
2021/10/24 11:29:35;;;;;;;10.38;3.55;;;;;;;;;;5019679;28;20068;-75
2021/10/24 11:32:18;;;;;;;8.43;3.38;;;;;;;;;;5037216;28;20021;-75
2021/10/24 11:34:44;;;;;;;9.80;4.70;;;;;;;;;;5037123;28;20032;-76
2021/10/24 11:37:11;;;;;;;9.20;3.85;;;;;;;;;;5037098;28;20075;-75
2021/10/24 11:39:37;;;;;;;6.40;2.95;;;;;;;;;;5037100;28;20053;-75
2021/10/24 11:42:13;;;;;;;11.55;6.25;;;;;;;;;;5036928;28;20018;-75
2021/10/24 11:44:39;;;;;;;6.00;3.03;;;;;;;;;;5036879;28;20060;-75
2021/10/24 11:47:09;;;;;;;5.70;2.95;;;;;;;;;;5036948;28;20408;-75
2021/10/24 11:49:47;;;;;;;5.80;2.97;;;;;;;;;;5037093;28;20025;-75
2021/10/24 11:52:22;;;;;;;10.35;5.50;;;;;;;;;;5037033;28;20059;-75
2021/10/24 11:55:10;;;;;;;12.27;6.03;;;;;;;;;;5036609;28;20033;-75
2021/10/24 11:58:06;;;;;;;7.40;4.10;;;;;;;;;;5036781;28;20075;-75
2021/10/24 12:01:06;;;;;;;6.70;3.38;;;;;;;;;;5036642;28;20113;-75
2021/10/24 12:03:25;;;;;;;;;;;;;;;;;;5033016;28;20059;-75
2021/10/24 12:05:51;;;;;;;8.23;3.85;;;;;;;;;;5033905;28;19917;-75
2021/10/24 12:08:19;;;;;;;7.07;2.63;;;;;;;;;;5017641;28;20316;-75
2021/10/24 12:10:49;;;;;;;6.20;3.17;;;;;;;;;;5026266;28;20443;-75
2021/10/24 12:13:37;;;;;;;8.05;2.28;;;;;;;;;;5018516;28;20116;-75
2021/10/24 12:16:04;;;;;;;6.20;2.85;;;;;;;;;;5021073;28;20108;-75
2021/10/24 12:18:33;;;;;;;6.88;2.90;;;;;;;;;;5036574;28;20032;-75
2021/10/24 12:21:00;;;;;;;7.40;2.53;;;;;;;;;;5036389;28;20033;-75
2021/10/24 12:23:27;;;;;;;5.03;2.30;;;;;;;;;;5036851;28;20021;-75
2021/10/24 12:25:54;;;;;;;6.88;2.30;;;;;;;;;;5036501;28;20044;-75
2021/10/24 12:28:26;;;;;;;7.70;3.35;;;;;;;;;;5036320;28;20076;-75
2021/10/24 12:30:54;;;;;;;13.38;3.47;;;;;;;;;;5022032;28;20030;-75
2021/10/24 12:33:25;;;;;;;7.82;3.20;;;;;;;;;;5022458;28;20094;-75
2021/10/24 12:35:54;;;;;;;4.65;2.08;;;;;;;;;;5040290;28;20336;-75
2021/10/24 12:38:20;;;;;;;8.70;3.70;;;;;;;;;;5040306;28;20034;-75
2021/10/24 12:40:54;;;;;;;6.72;3.00;;;;;;;;;;5040012;28;20040;-75
2021/10/24 12:43:20;;;;;;;7.35;3.60;;;;;;;;;;5040075;28;20032;-75
2021/10/24 12:45:52;;;;;;;5.90;2.67;;;;;;;;;;5040144;28;20021;-75
2021/10/24 12:48:18;;;;;;;5.85;2.75;;;;;;;;;;5040137;28;20018;-75
2021/10/24 12:50:45;;;;;;;4.70;2.20;;;;;;;;;;5040174;28;20045;-75
2021/10/24 12:53:17;;;;;;;3.75;1.75;;;;;;;;;;5022021;28;20033;-75
2021/10/24 12:56:03;;;;;;;6.90;2.78;;;;;;;;;;5040182;28;20051;-75
2021/10/24 12:58:29;;;;;;;7.75;2.55;;;;;;;;;;5022443;28;20092;-75
2021/10/24 13:00:55;;;;;;;7.97;2.45;;;;;;;;;;5039815;28;20315;-75
2021/10/24 13:03:21;;;;;;;7.95;2.40;;;;;;;;;;5039767;28;20439;-75
2021/10/24 13:05:47;;;;;;;11.95;4.55;;;;;;;;;;5022276;28;20030;-75
2021/10/24 13:08:15;;;;;;;7.40;2.75;;;;;;;;;;5039596;28;20068;-75
2021/10/24 13:10:41;;;;;;;21.73;6.30;;;;;;;;;;5039814;28;20036;-75
2021/10/24 13:13:08;;;;;;;52.50;20.05;;;;;;;;;;5039816;28;20022;-75
2021/10/24 13:15:34;;;;;;;30.55;14.82;;;;;;;;;;5039753;28;20320;-75
2021/10/24 13:18:00;;;;;;;27.67;14.00;;;;;;;;;;5039600;28;20053;-75
2021/10/24 13:20:26;;;;;;;5.72;3.28;;;;;;;;;;5039400;28;20053;-75
2021/10/24 13:23:03;;;;;;;6.15;2.50;;;;;;;;;;5039561;28;20066;-75
2021/10/24 13:25:29;;;;;;;4.63;2.40;;;;;;;;;;5039559;28;20104;-75
2021/10/24 13:27:56;;;;;;;8.93;4.18;;;;;;;;;;5039341;28;20026;-75
2021/10/24 13:30:23;;;;;;;11.07;4.70;;;;;;;;;;5005546;28;20033;-75
2021/10/24 13:32:50;;;;;;;12.57;2.58;;;;;;;;;;5039489;28;20063;-75
2021/10/24 13:35:17;;;;;;;9.55;3.80;;;;;;;;;;5038917;28;20045;-75
2021/10/24 13:37:43;;;;;;;11.35;3.70;;;;;;;;;;5021879;28;20102;-75
2021/10/24 13:40:09;;;;;;;8.35;3.50;;;;;;;;;;5039254;28;20033;-75
2021/10/24 13:42:35;;;;;;;15.05;5.80;;;;;;;;;;5038667;28;20308;-75
2021/10/24 13:45:01;;;;;;;11.32;4.82;;;;;;;;;;5021019;28;20335;-75
2021/10/24 13:47:27;;;;;;;6.20;3.38;;;;;;;;;;5039243;28;20121;-75
2021/10/24 13:49:53;;;;;;;7.82;2.90;;;;;;;;;;5039171;28;20025;-75
2021/10/24 13:52:19;;;;;;;6.65;2.72;;;;;;;;;;5039281;28;20030;-75
2021/10/24 13:54:45;;;;;;;5.40;2.65;;;;;;;;;;5038934;28;20064;-75
2021/10/24 13:57:11;;;;;;;6.03;2.40;;;;;;;;;;5038811;28;20430;-75
2021/10/24 13:59:39;;;;;;;6.05;2.58;;;;;;;;;;5038758;28;20408;-75
2021/10/24 14:02:05;;;;;;;6.80;2.85;;;;;;;;;;5021181;28;20116;-75
2021/10/24 14:04:31;;;;;;;11.25;6.05;;;;;;;;;;5039021;28;20067;-75
2021/10/24 14:06:57;;;;;;;14.40;6.15;;;;;;;;;;5039011;28;20289;-75
2021/10/24 14:09:23;;;;;;;12.98;5.55;;;;;;;;;;5038948;28;20018;-75
2021/10/24 14:11:49;;;;;;;8.13;5.03;;;;;;;;;;5038880;28;20056;-75
2021/10/24 14:14:15;;;;;;;10.65;4.75;;;;;;;;;;5038773;28;20021;-75
2021/10/24 14:16:41;;;;;;;11.60;4.97;;;;;;;;;;5038345;28;20029;-75
2021/10/24 14:19:07;;;;;;;10.20;5.00;;;;;;;;;;5021180;28;20416;-75
2021/10/24 14:21:33;;;;;;;8.70;3.72;;;;;;;;;;5021049;28;20026;-75
2021/10/24 14:23:59;;;;;;;8.35;3.88;;;;;;;;;;5038673;28;20029;-75
2021/10/24 14:26:25;;;;;;;8.60;4.45;;;;;;;;;;5038236;28;20061;-80
2021/10/24 14:28:52;;;;;;;12.70;4.53;;;;;;;;;;5038224;28;20025;-75
2021/10/24 14:31:19;;;;;;;12.43;4.30;;;;;;;;;;5038153;28;20033;-75
2021/10/24 14:33:47;;;;;;;5.95;2.75;;;;;;;;;;5020789;28;20040;-75
2021/10/24 14:36:13;;;;;;;16.08;3.70;;;;;;;;;;5038022;28;20056;-75
2021/10/24 14:38:39;;;;;;;17.45;4.53;;;;;;;;;;5038204;28;20029;-75
2021/10/24 14:41:05;;;;;;;8.43;2.83;;;;;;;;;;5038059;28;20076;-75
2021/10/24 14:43:31;;;;;;;9.13;3.92;;;;;;;;;;5038003;28;20028;-76
2021/10/24 14:45:57;;;;;;;15.90;5.20;;;;;;;;;;5037985;28;20028;-75
2021/10/24 14:48:24;;;;;;;12.45;5.70;;;;;;;;;;5038027;28;20022;-75
2021/10/24 14:50:50;;;;;;;36.75;16.75;;;;;;;;;;5037887;28;20029;-75
2021/10/24 14:53:17;;;;;;;71.03;33.28;;;;;;;;;;5037189;28;20044;-75
2021/10/24 14:55:43;;;;;;;55.72;28.63;;;;;;;;;;5037738;28;20033;-75
2021/10/24 14:58:09;;;;;;;76.88;34.85;;;;;;;;;;5037763;28;20041;-75
2021/10/24 15:00:35;;;;;;;40.97;18.75;;;;;;;;;;5037713;28;20033;-75
2021/10/24 15:03:02;;;;;;;78.07;33.58;;;;;;;;;;5037759;28;20028;-75
2021/10/24 15:05:28;;;;;;;44.97;18.60;;;;;;;;;;5037658;28;20022;-75
2021/10/24 15:07:55;;;;;;;34.45;14.45;;;;;;;;;;5037677;28;20030;-75
2021/10/24 15:10:22;;;;;;;36.42;15.45;;;;;;;;;;5037808;28;20040;-75
2021/10/24 15:12:48;;;;;;;27.65;12.43;;;;;;;;;;5037714;28;20032;-75
2021/10/24 15:15:15;;;;;;;31.83;14.35;;;;;;;;;;5037588;28;20388;-75
2021/10/24 15:17:52;;;;;;;45.40;21.88;;;;;;;;;;5037398;28;20032;-75